LTAZLTCN

Guest
Details From LTAZ - KAPADOKYA
To LTCN - KAHRAMANMARAS
Flight Number -
Tags generated
Created
Modified
Stats Distance 136 nm / 252 km
Max Altitude 13,200 ft / 4,023 m
Waypoints 3
Social Downloads 0
Likes 0
Share VATSIM

Download

Looking for another format? Having issues loading an existing format? Contact us
Advertisement - Login to hide

Notes

Basic altitude profile: - Ascent Rate: 2500ft/min - Ascent Speed: 250kts - Cruise Altitude: 35000ft - Cruise Speed: 420kts - Descent Rate: 1500ft/min - Descent Speed: 250kts Options: - Use NATs: yes - Use PACOTS: yes - Use low airways: yes - Use high airways: no

Route

LTAZ SOLSA LTCN

ID Type Via Altitude Latitude Longitude Leg Dist Tot Dist Heading (true) Name
O LTAZ APT - 0 ft / 0 m 38.77186˚ 34.53455˚ - 0 nm - KAPADOKYA
SOLSA FIX - 13,200 ft / 4,023 m 38.14556˚ 35.77889˚ 69 nm 69 nm 122° / 123° -
O LTCN APT - 0 ft / 0 m 37.53897˚ 36.95341˚ 66 nm 136 nm 123° / 124° KAHRAMANMARAS

Altitude Profile

Advertisement - Login to hide

LTAZ

Details ICAO LTAZ (NAV)
Name KAPADOKYA
Region Turkey
Timezone Europe/Istanbul (UTC+3.0)
Stats Elevation 3,100 ft / 945 m (AMSL)
Location 38.771865° 34.534548°
Runways 1
Magnetic Variation 5.599° E

METAR

LTAZ 142250Z VRB01KT CAVOK M02/M03 Q1018

Decode

TAF

Not found

Departure Runways

ID Width Length Bearing (true) Bearing (mag) Surface Threshold Offset Overrun Length
11 148 ft / 45 m 9,789 ft / 2,984 m 117.31° 111.71° Concrete 0 ft / 0 m 197 ft / 60 m
29 148 ft / 45 m 9,789 ft / 2,984 m 297.33° 291.73° Concrete 0 ft / 0 m 197 ft / 60 m

LTCN

Details ICAO LTCN (KCM)
Name KAHRAMANMARAS
Region Turkey
Timezone Europe/Istanbul (UTC+3.0)
Stats Elevation 1,723 ft / 525 m (AMSL)
Location 37.538967° 36.953411°
Runways 1
Magnetic Variation 5.505° E

METAR

LTCN 142250Z 08004KT CAVOK 05/02 Q1018 NOSIG

Decode

TAF

Not found

Destination Runways

ID Width Length Bearing (true) Bearing (mag) Surface Threshold Offset Overrun Length
08 98 ft / 30 m 7,533 ft / 2,296 m 75.46° 69.96° Asphalt 0 ft / 0 m 196 ft / 60 m
26 98 ft / 30 m 7,533 ft / 2,296 m 255.48° 249.98° Asphalt 984 ft / 300 m 196 ft / 60 m